Time;durP1;ratioP1;P1;durP2;ratioP2;P2;SDS_P1;SDS_P2;PMS_P1;PMS_P2;Temp;Humidity;BMP_temperature;BMP_pressure;BME280_temperature;BME280_humidity;BME280_pressure;Samples;Min_cycle;Max_cycle;Signal;HPM_P1;HPM_P2
2023/10/12 00:02:21;;;;;;;14.45;4.18;;;;;;;22.35;53.08;100886.88;4986879;28;20391;-72
2023/10/12 00:05:06;;;;;;;17.10;4.32;;;;;;;22.52;53.03;100882.56;5002258;28;20045;-72
2023/10/12 00:07:33;;;;;;;13.45;4.28;;;;;;;22.72;52.94;100881.13;4981057;28;20465;-67
2023/10/12 00:12:47;;;;;;;19.80;4.50;;;;;;;22.21;51.00;100881.13;4994961;28;20054;-67
2023/10/12 00:18:10;;;;;;;13.48;4.35;;;;;;;22.50;53.28;100885.78;4993206;28;20042;-68
2023/10/12 00:20:38;;;;;;;12.75;4.28;;;;;;;22.43;53.58;100876.47;4993783;28;20061;-68
2023/10/12 00:23:10;;;;;;;13.95;4.55;;;;;;;22.61;53.45;100874.66;4995022;28;20057;-67
2023/10/12 00:25:47;;;;;;;12.02;4.07;;;;;;;22.60;53.86;100873.84;4994699;28;20073;-68
2023/10/12 00:28:19;;;;;;;15.27;4.10;;;;;;;22.65;53.45;100869.88;4994077;28;20050;-67
2023/10/12 00:30:57;;;;;;;17.05;4.15;;;;;;;22.64;53.21;100871.06;4998649;28;20540;-68
2023/10/12 00:33:25;;;;;;;10.80;4.40;;;;;;;22.51;53.73;100864.91;5001156;28;20398;-67
2023/10/12 00:36:00;;;;;;;11.10;4.13;;;;;;;22.42;53.51;100866.47;5000353;28;20122;-68
2023/10/12 00:38:29;;;;;;;15.00;4.65;;;;;;;22.47;53.83;100863.28;4984920;28;20054;-69
2023/10/12 00:41:00;;;;;;;13.32;4.47;;;;;;;22.34;54.36;100862.78;5004019;28;20053;-67
2023/10/12 00:43:36;;;;;;;10.48;3.90;;;;;;;22.34;53.93;100872.03;4996331;28;20072;-69
2023/10/12 00:46:21;;;;;;;15.63;4.57;;;;;;;22.32;53.97;100865.97;5012372;28;20054;-67
2023/10/12 00:48:55;;;;;;;15.90;4.40;;;;;;;22.32;54.65;100871.59;4984413;28;20038;-68
2023/10/12 00:51:23;;;;;;;13.18;4.75;;;;;;;22.52;53.80;100871.34;4977192;28;20505;-67
2023/10/12 00:53:56;;;;;;;12.88;4.38;;;;;;;22.28;53.56;100869.97;4965540;28;20054;-67
2023/10/12 00:56:24;;;;;;;12.27;4.22;;;;;;;22.33;54.34;100878.81;4993361;28;20066;-67
2023/10/12 00:58:55;;;;;;;12.35;4.70;;;;;;;21.74;52.55;100873.41;4993435;28;20042;-66
2023/10/12 01:01:23;;;;;;;10.95;4.18;;;;;;;21.65;56.03;100867.34;5010008;28;20057;-66
2023/10/12 01:03:52;;;;;;;17.63;4.53;;;;;;;22.03;55.92;100852.09;5000734;28;20050;-67
2023/10/12 01:09:00;;;;;;;11.50;3.97;;;;;;;22.24;54.89;100857.91;5014019;28;20050;-73
2023/10/12 01:11:27;;;;;;;21.55;4.63;;;;;;;22.13;54.82;100842.97;4994206;28;20058;-67
2023/10/12 01:16:41;;;;;;;18.90;4.18;;;;;;;22.33;54.32;100841.53;5003269;28;20058;-71
2023/10/12 01:19:09;;;;;;;17.77;5.15;;;;;;;22.35;51.98;100848.34;4998587;28;20046;-73
2023/10/12 01:21:36;;;;;;;19.60;4.80;;;;;;;22.26;55.04;100847.09;4993632;28;20057;-73
2023/10/12 01:24:13;;;;;;;14.05;4.07;;;;;;;22.36;54.60;100837.94;4994108;28;20472;-72
2023/10/12 01:26:48;;;;;;;17.38;4.90;;;;;;;22.32;54.51;100846.34;4976261;28;20066;-71
2023/10/12 01:29:25;;;;;;;12.82;4.18;;;;;;;22.45;54.29;100855.25;4994543;28;20046;-74
2023/10/12 01:34:36;;;;;;;12.25;4.43;;;;;;;22.42;54.53;100852.44;5001265;28;20701;-73
2023/10/12 01:37:11;;;;;;;13.27;4.47;;;;;;;22.30;54.90;100848.72;5006213;28;20061;-73
2023/10/12 01:39:41;;;;;;;10.23;4.20;;;;;;;22.27;54.59;100838.28;5012549;28;20045;-73
2023/10/12 01:42:10;;;;;;;11.07;3.88;;;;;;;22.20;54.33;100855.06;4964672;28;20046;-74
2023/10/12 01:44:37;;;;;;;12.02;4.50;;;;;;;22.35;54.59;100856.00;5012915;28;20049;-73
2023/10/12 01:47:04;;;;;;;12.98;4.75;;;;;;;22.41;54.67;100848.00;4979559;28;20050;-74
2023/10/12 01:49:36;;;;;;;14.48;4.47;;;;;;;22.34;53.98;100860.78;4977567;28;20061;-72
2023/10/12 01:52:04;;;;;;;12.13;4.28;;;;;;;22.30;54.36;100865.56;4976438;28;20046;-74
2023/10/12 01:54:32;;;;;;;13.57;4.47;;;;;;;22.09;54.85;100862.56;5010652;28;20050;-71
2023/10/12 01:56:59;;;;;;;17.52;4.95;;;;;;;22.22;54.93;100858.28;4993654;28;20065;-73
2023/10/12 01:59:27;;;;;;;11.68;4.00;;;;;;;22.20;55.04;100857.88;4978881;28;20049;-73
2023/10/12 02:02:07;;;;;;;15.32;4.85;;;;;;;22.13;55.56;100865.41;4995849;28;20062;-73
2023/10/12 02:04:39;;;;;;;11.43;4.10;;;;;;;22.31;55.09;100863.56;4967845;28;20058;-72
2023/10/12 02:07:10;;;;;;;13.88;5.10;;;;;;;22.25;54.64;100863.13;4998373;28;20136;-72
2023/10/12 02:09:37;;;;;;;15.02;4.40;;;;;;;22.44;54.36;100872.50;5017366;28;20046;-73
2023/10/12 02:12:12;;;;;;;11.88;4.72;;;;;;;22.31;54.39;100861.56;5032046;28;20054;-74
2023/10/12 02:14:40;;;;;;;8.38;4.28;;;;;;;22.24;54.95;100852.28;4999719;28;20058;-73
2023/10/12 02:17:08;;;;;;;18.25;5.00;;;;;;;22.14;55.14;100856.59;4999201;28;20046;-72
2023/10/12 02:19:42;;;;;;;11.60;4.30;;;;;;;21.99;55.37;100862.47;4980144;28;20061;-73
2023/10/12 02:22:24;;;;;;;16.00;5.20;;;;;;;22.02;55.47;100856.13;4997269;28;20867;-72
2023/10/12 02:25:17;;;;;;;18.92;4.95;;;;;;;22.17;55.27;100864.28;4997649;28;20061;-73
2023/10/12 02:27:44;;;;;;;15.73;4.30;;;;;;;22.27;55.03;100860.75;5012125;28;20057;-73
2023/10/12 02:30:18;;;;;;;14.75;4.88;;;;;;;22.24;54.70;100864.31;5000348;28;20050;-73
2023/10/12 02:33:00;;;;;;;11.85;4.35;;;;;;;22.12;55.08;100875.81;4984687;28;20058;-72
2023/10/12 02:35:36;;;;;;;12.80;4.75;;;;;;;22.07;55.54;100869.78;5004617;28;20045;-73
2023/10/12 02:38:07;;;;;;;17.42;4.85;;;;;;;21.89;56.20;100871.59;5016335;28;20058;-71
2023/10/12 02:40:35;;;;;;;12.95;5.05;;;;;;;21.82;54.85;100875.16;4993360;28;20058;-74
2023/10/12 02:43:03;;;;;;;13.23;4.53;;;;;;;22.02;56.29;100873.72;5016819;28;20065;-73
2023/10/12 02:45:33;;;;;;;14.02;4.13;;;;;;;21.86;55.16;100875.97;4989869;28;20077;-73
2023/10/12 02:48:05;;;;;;;16.95;5.05;;;;;;;21.71;54.71;100879.81;4976922;28;20046;-75
2023/10/12 02:50:57;;;;;;;15.65;4.60;;;;;;;21.48;55.84;100869.94;5011464;28;20042;-74
2023/10/12 02:53:28;;;;;;;17.02;4.82;;;;;;;21.50;57.93;100861.94;5005553;28;20046;-73
2023/10/12 02:56:01;;;;;;;16.17;5.00;;;;;;;21.93;56.95;100859.22;4997656;28;20054;-73
2023/10/12 02:58:29;;;;;;;18.58;5.05;;;;;;;22.10;56.05;100858.59;5017336;28;20058;-72
2023/10/12 03:01:12;;;;;;;12.40;4.80;;;;;;;22.06;55.70;100863.34;4998569;28;20057;-73
2023/10/12 03:03:48;;;;;;;12.23;4.30;;;;;;;21.93;56.69;100856.41;5000340;28;20062;-72
2023/10/12 03:06:23;;;;;;;13.18;4.60;;;;;;;21.95;56.32;100853.25;5005786;28;20053;-74
2023/10/12 03:09:04;;;;;;;11.63;4.13;;;;;;;21.80;56.87;100846.69;5011249;28;20046;-73
2023/10/12 03:11:31;;;;;;;12.95;4.95;;;;;;;22.01;56.91;100849.69;4964601;28;20363;-73
2023/10/12 03:17:02;;;;;;;11.88;4.72;;;;;;;22.11;56.31;100851.78;4991861;28;20062;-73
2023/10/12 03:19:35;;;;;;;17.02;5.28;;;;;;;21.81;56.96;100842.69;4996428;28;20494;-74
2023/10/12 03:22:23;;;;;;;11.65;4.97;;;;;;;21.88;56.89;100856.75;4998245;28;20412;-73
2023/10/12 03:24:51;;;;;;;12.50;5.20;;;;;;;21.88;57.29;100859.56;4978917;28;20057;-73
2023/10/12 03:27:23;;;;;;;17.00;4.80;;;;;;;22.00;56.79;100853.66;4996688;28;20062;-73
2023/10/12 03:30:07;;;;;;;14.13;4.95;;;;;;;22.01;56.57;100865.72;4978103;28;20046;-72
2023/10/12 03:32:34;;;;;;;14.40;4.63;;;;;;;22.01;57.24;100865.72;4981490;28;20053;-73
2023/10/12 03:35:04;;;;;;;12.75;4.63;;;;;;;21.89;57.28;100849.16;5013231;28;20057;-75
2023/10/12 03:37:53;;;;;;;;;;;;;;;21.79;57.08;100864.69;4979422;28;20056;-73
2023/10/12 03:43:27;;;;;;;14.38;4.95;;;;;;;21.98;57.48;100863.69;4995907;28;20062;-73
2023/10/12 03:49:02;;;;;;;15.35;5.22;;;;;;;21.75;57.43;100861.03;5000674;28;20066;-73
2023/10/12 03:51:46;;;;;;;14.23;5.38;;;;;;;21.83;57.63;100861.91;4999733;28;20061;-72
2023/10/12 03:54:29;;;;;;;14.35;4.47;;;;;;;21.99;57.35;100848.44;4979005;28;20046;-74
2023/10/12 03:57:06;;;;;;;17.45;5.28;;;;;;;21.94;57.57;100852.44;4984031;28;20058;-74
2023/10/12 03:59:39;;;;;;;12.55;4.63;;;;;;;21.96;57.56;100860.44;4978191;28;20058;-72
2023/10/12 04:02:13;;;;;;;19.33;4.95;;;;;;;21.86;58.00;100864.75;4980507;28;20058;-74
2023/10/12 04:04:53;;;;;;;15.32;5.07;;;;;;;22.00;57.60;100856.47;4995500;28;20054;-73
2023/10/12 04:07:37;;;;;;;12.50;5.20;;;;;;;21.90;57.29;100847.97;4979931;28;20084;-73
2023/10/12 04:10:13;;;;;;;17.55;5.57;;;;;;;;;;4980429;28;20054;-73
2023/10/12 04:12:54;;;;;;;11.52;4.78;;;;;;;21.86;57.71;100859.16;4995327;28;20061;-74
2023/10/12 04:15:29;;;;;;;13.82;5.50;;;;;;;21.91;57.87;100853.22;4998753;28;20600;-74
2023/10/12 04:17:59;;;;;;;11.68;5.18;;;;;;;22.00;57.70;100852.88;5006130;28;20058;-73
2023/10/12 04:20:28;;;;;;;10.63;4.88;;;;;;;21.85;57.70;100853.94;4995520;28;20062;-73
2023/10/12 04:23:43;;;;;;;20.20;5.50;;;;;;;21.94;57.81;100874.88;5001037;28;20054;-73
2023/10/12 04:25:59;;;;;;;11.02;4.60;;;;;;;21.87;57.97;100869.19;4996727;28;20054;-74
2023/10/12 04:28:32;;;;;;;13.60;5.40;;;;;;;21.83;57.69;100879.56;4993821;28;20057;-74
2023/10/12 04:33:38;;;;;;;11.80;4.93;;;;;;;21.73;58.46;100873.81;5014468;28;20058;-74
2023/10/12 04:43:52;;;;;;;9.70;5.18;;;;;;;21.82;58.33;100882.75;4994708;28;20062;-75
2023/10/12 04:51:39;;;;;;;17.77;5.05;;;;;;;21.85;57.82;100879.16;4982917;28;20374;-75
2023/10/12 05:02:41;;;;;;;11.18;5.20;;;;;;;21.85;58.57;100873.56;4980878;28;20050;-73
2023/10/12 05:05:15;;;;;;;11.50;4.95;;;;;;;21.79;58.76;100875.91;4994665;28;20050;-72
2023/10/12 05:07:54;;;;;;;13.50;4.60;;;;;;;21.70;58.96;100881.00;4998387;28;20050;-74
2023/10/12 05:13:05;;;;;;;14.07;4.85;;;;;;;21.78;58.54;100874.31;4995091;28;20066;-73
2023/10/12 05:15:46;;;;;;;11.68;5.88;;;;;;;21.80;59.03;100876.72;4980722;28;20056;-74
2023/10/12 05:18:17;;;;;;;12.98;5.07;;;;;;;21.86;58.77;100870.38;5003710;28;20049;-74
2023/10/12 05:20:45;;;;;;;13.25;4.75;;;;;;;21.93;58.62;100878.84;4995788;28;20046;-73
2023/10/12 05:23:12;;;;;;;14.43;5.10;;;;;;;21.89;58.75;100880.84;5008926;28;20045;-74
2023/10/12 05:28:21;;;;;;;14.95;5.60;;;;;;;21.66;59.16;100877.34;5000516;28;20681;-75
2023/10/12 05:30:54;;;;;;;11.50;4.97;;;;;;;21.70;59.60;100869.78;5007852;28;20042;-73
2023/10/12 05:36:09;;;;;;;11.10;5.65;;;;;;;21.87;59.00;100857.97;5004092;28;20068;-71
2023/10/12 05:38:38;;;;;;;16.50;5.72;;;;;;;21.72;59.52;100859.00;5012954;28;20054;-73
2023/10/12 05:41:10;;;;;;;12.77;5.22;;;;;;;21.64;59.43;100862.91;4993906;28;20054;-72
2023/10/12 05:43:39;;;;;;;12.05;5.00;;;;;;;21.65;59.85;100867.34;4995572;28;20073;-75
2023/10/12 05:46:13;;;;;;;11.20;5.07;;;;;;;21.66;59.22;100868.13;5006027;28;20065;-70
2023/10/12 05:48:45;;;;;;;15.82;5.05;;;;;;;21.73;59.45;100888.66;4985380;28;20049;-70
2023/10/12 05:51:18;;;;;;;14.73;5.13;;;;;;;21.67;59.72;100895.78;4996944;28;20076;-71
2023/10/12 05:53:48;;;;;;;15.25;5.40;;;;;;;21.70;60.26;100899.81;5007238;28;20521;-71
2023/10/12 05:56:18;;;;;;;11.25;5.72;;;;;;;21.59;59.77;100910.91;5013280;28;20053;-72
2023/10/12 05:58:46;;;;;;;17.58;5.70;;;;;;;21.35;60.43;100917.03;4976790;28;20061;-72
2023/10/12 06:01:31;;;;;;;13.20;5.60;;;;;;;21.43;61.12;100926.34;4975668;28;20116;-70
2023/10/12 06:04:05;;;;;;;15.07;5.53;;;;;;;21.61;60.21;100925.34;5005312;28;20053;-71
2023/10/12 06:06:41;;;;;;;14.05;5.93;;;;;;;21.60;60.68;100923.72;5012731;28;20053;-70
2023/10/12 06:09:13;;;;;;;13.95;6.13;;;;;;;21.53;60.68;100934.84;4998403;28;20050;-71
2023/10/12 06:11:44;;;;;;;17.75;5.90;;;;;;;21.67;60.40;100935.03;4976436;28;20045;-70
2023/10/12 06:14:15;;;;;;;17.52;6.05;;;;;;;21.70;60.44;100942.69;4999691;28;20057;-70
2023/10/12 06:16:42;;;;;;;15.45;7.20;;;;;;;21.76;60.04;100949.56;5013333;28;20057;-70
2023/10/12 06:19:26;;;;;;;18.02;6.65;;;;;;;21.82;60.37;100948.06;5013347;28;20058;-70
2023/10/12 06:22:19;;;;;;;14.77;5.18;;;;;;;21.78;60.23;100964.03;5015255;28;20041;-71
2023/10/12 06:24:52;;;;;;;17.13;5.85;;;;;;;21.34;61.97;100990.28;5013527;28;20057;-70
2023/10/12 06:29:47;;;;;;;25.05;7.03;;;;;;;20.91;62.98;101016.78;5024071;28;20061;-70
2023/10/12 06:32:19;;;;;;;14.02;6.30;;;;;;;20.94;64.46;101016.03;4997638;28;20045;-71
2023/10/12 06:35:24;;;;;;;17.63;7.28;;;;;;;21.22;64.09;101005.31;5011724;28;20556;-69
2023/10/12 06:45:55;;;;;;;15.07;6.13;;;;;;;21.50;63.29;100994.50;4989855;28;20582;-72
2023/10/12 06:51:03;;;;;;;22.52;7.55;;;;;;;21.53;64.01;101007.75;5028153;28;20130;-72
2023/10/12 06:53:35;;;;;;;17.50;7.10;;;;;;;21.73;63.49;101026.03;4994361;28;20046;-71
2023/10/12 06:59:13;;;;;;;22.92;7.60;;;;;;;21.76;64.24;101044.91;5011383;28;20053;-70
2023/10/12 07:04:36;;;;;;;20.77;7.68;;;;;;;21.56;68.72;101000.56;5015208;28;20053;-70
2023/10/12 07:07:07;;;;;;;18.65;8.13;;;;;;;21.09;70.89;101003.91;5011778;28;20054;-70
2023/10/12 07:09:44;;;;;;;18.88;8.60;;;;;;;21.20;71.70;101022.50;4997014;28;20053;-71
2023/10/12 07:12:13;;;;;;;21.90;10.95;;;;;;;21.21;73.52;101028.91;5028124;28;20054;-71
2023/10/12 07:14:47;;;;;;;19.88;9.02;;;;;;;21.18;73.30;101036.06;5013720;28;20054;-70
2023/10/12 07:17:15;;;;;;;19.67;8.55;;;;;;;21.07;75.01;101025.88;5012218;28;20050;-70
2023/10/12 07:19:55;;;;;;;16.45;7.85;;;;;;;21.07;74.79;101018.31;5012884;28;20058;-70
2023/10/12 07:22:22;;;;;;;18.88;7.72;;;;;;;20.79;76.62;101017.81;5014572;28;20046;-72
2023/10/12 07:24:57;;;;;;;23.77;8.50;;;;;;;20.96;76.00;101022.06;4980320;28;20555;-71
2023/10/12 07:27:24;;;;;;;22.52;7.93;;;;;;;20.99;75.34;101032.56;5014113;28;20054;-70
2023/10/12 07:30:10;;;;;;;20.98;8.43;;;;;;;20.98;75.39;101028.97;4994869;28;20058;-71
2023/10/12 07:35:36;;;;;;;25.83;8.68;;;;;;;21.01;75.31;101030.19;5004598;28;20058;-70
2023/10/12 07:38:34;;;;;;;18.38;8.40;;;;;;;21.07;75.18;101025.88;5013798;28;20067;-70
2023/10/12 07:41:00;;;;;;;20.52;8.77;;;;;;;21.01;75.23;101032.97;5000138;28;20059;-70
2023/10/12 07:43:31;;;;;;;16.30;9.05;;;;;;;20.95;76.09;101035.28;4990105;28;20062;-70
2023/10/12 07:46:23;;;;;;;17.67;8.45;;;;;;;20.90;76.25;101035.59;5016152;28;20058;-70
2023/10/12 07:48:51;;;;;;;18.67;8.70;;;;;;;21.04;75.88;101040.66;5011296;28;20050;-70
2023/10/12 07:51:24;;;;;;;19.83;9.80;;;;;;;21.14;75.10;101037.22;5014038;28;20045;-70
2023/10/12 07:54:00;;;;;;;15.68;8.95;;;;;;;21.17;75.06;101034.47;5014244;28;20042;-70
2023/10/12 07:56:33;;;;;;;20.00;9.27;;;;;;;20.85;76.86;101038.69;5014168;28;20054;-70
2023/10/12 07:59:13;;;;;;;15.80;8.40;;;;;;;21.07;75.84;101035.13;5015282;28;20050;-70
2023/10/12 08:01:50;;;;;;;15.57;8.30;;;;;;;21.28;74.89;101043.03;5010294;28;20505;-71
2023/10/12 08:04:29;;;;;;;16.33;8.50;;;;;;;21.33;74.60;101039.09;5013247;28;20056;-71
2023/10/12 08:06:57;;;;;;;17.55;8.30;;;;;;;21.41;74.39;101040.81;5003097;28;20058;-70
2023/10/12 08:11:53;;;;;;;19.10;9.38;;;;;;;21.03;76.34;101044.63;5013878;28;20050;-71
2023/10/12 08:19:42;;;;;;;17.00;8.25;;;;;;;21.07;76.17;101039.91;4999745;28;19921;-71
2023/10/12 08:22:25;;;;;;;21.13;7.82;;;;;;;21.19;75.77;101039.69;4996449;28;20049;-71
2023/10/12 08:25:04;;;;;;;16.52;8.30;;;;;;;20.66;78.15;101032.38;5013339;28;20057;-71
2023/10/12 08:28:18;;;;;;;23.30;8.88;;;;;;;20.63;78.29;101044.31;5003656;28;20058;-72
2023/10/12 08:30:48;;;;;;;22.55;8.88;;;;;;;20.90;78.04;101046.00;4981998;28;20065;-72
2023/10/12 08:33:14;;;;;;;22.77;7.88;;;;;;;21.12;76.54;101053.59;4997615;28;20050;-73
2023/10/12 08:36:28;;;;;;;22.23;8.38;;;;;;;21.11;76.12;101049.97;5011607;28;20049;-69
2023/10/12 08:38:40;;;;;;;18.67;8.30;;;;;;;20.72;77.70;101056.88;5020318;28;20060;-72
2023/10/12 08:43:59;;;;;;;22.95;8.63;;;;;;;21.25;77.08;101052.97;4988983;28;20073;-68
2023/10/12 08:52:20;;;;;;;21.50;8.90;;;;;;;21.52;75.61;101041.75;5013326;28;20060;-73
2023/10/12 08:54:51;;;;;;;19.17;8.98;;;;;;;21.58;75.24;101041.06;5011425;28;20058;-69
2023/10/12 08:57:32;;;;;;;18.52;9.07;;;;;;;21.60;75.45;101037.88;4996876;28;20061;-72
2023/10/12 09:02:52;;;;;;;23.17;10.37;;;;;;;21.75;74.68;101023.66;4992216;28;20073;-71
2023/10/12 09:05:55;;;;;;;21.73;9.88;;;;;;;21.83;74.38;101025.41;5009714;28;20309;-71
2023/10/12 09:13:28;;;;;;;23.58;9.60;;;;;;;21.68;75.53;101036.78;4987252;28;20057;-71
2023/10/12 09:15:57;;;;;;;21.23;9.65;;;;;;;21.78;74.79;101031.34;5011506;28;20420;-70
2023/10/12 09:18:30;;;;;;;19.05;9.10;;;;;;;21.90;74.49;101041.50;4995337;28;20056;-71
2023/10/12 09:23:30;;;;;;;22.65;8.98;;;;;;;21.43;76.06;101041.25;5013064;28;20430;-72
2023/10/12 09:31:15;;;;;;;28.33;9.18;;;;;;;21.58;75.84;101052.28;5011126;28;20311;-70
2023/10/12 09:34:12;;;;;;;16.73;9.20;;;;;;;21.65;75.33;101032.75;5010194;28;20069;-70
2023/10/12 09:36:43;;;;;;;24.48;9.50;;;;;;;21.41;75.90;101047.22;4994685;28;20421;-72
2023/10/12 09:39:12;;;;;;;19.45;9.05;;;;;;;21.13;77.38;101041.22;5011689;28;20061;-68
2023/10/12 09:41:42;;;;;;;21.38;9.43;;;;;;;21.51;76.22;101046.56;5011093;28;20046;-72
2023/10/12 09:44:13;;;;;;;19.33;10.02;;;;;;;21.77;75.01;101046.53;5010962;28;20073;-73
2023/10/12 09:46:46;;;;;;;19.55;9.13;;;;;;;21.72;75.01;101046.06;5009368;28;20061;-73
2023/10/12 09:49:24;;;;;;;26.67;9.57;;;;;;;21.80;75.13;101056.19;5022407;28;20084;-72
2023/10/12 09:52:07;;;;;;;20.85;9.68;;;;;;;21.80;74.15;101056.19;5012503;28;20057;-71
2023/10/12 09:54:57;;;;;;;18.33;9.52;;;;;;;21.93;74.16;101051.97;5009490;28;20060;-73
2023/10/12 09:57:26;;;;;;;23.20;9.30;;;;;;;21.86;74.57;101047.06;4987791;28;20045;-71
2023/10/12 09:59:59;;;;;;;22.75;8.77;;;;;;;21.67;75.65;101052.00;4978009;28;20386;-69
2023/10/12 10:02:34;;;;;;;24.05;9.27;;;;;;;21.95;74.33;101053.19;5015525;28;20081;-70
2023/10/12 10:05:24;;;;;;;27.65;10.05;;;;;;;22.11;73.73;101047.38;4994273;28;20072;-70
2023/10/12 10:07:56;;;;;;;19.83;9.57;;;;;;;22.15;73.34;101040.63;5007740;28;20058;-69
2023/10/12 10:10:31;;;;;;;19.70;9.60;;;;;;;22.18;73.42;101030.59;5009370;28;20061;-69
2023/10/12 10:13:04;;;;;;;22.90;9.95;;;;;;;22.18;73.67;101039.84;5011558;28;20069;-69
2023/10/12 10:15:44;;;;;;;24.77;10.00;;;;;;;22.38;72.48;101037.66;5013473;28;20679;-70
2023/10/12 10:18:15;;;;;;;26.10;9.70;;;;;;;22.44;72.22;101032.50;5006745;28;20049;-71
2023/10/12 10:20:56;;;;;;;17.02;7.40;;;;;;;22.59;71.45;101039.91;5014907;28;20057;-70
2023/10/12 10:23:24;;;;;;;16.83;8.48;;;;;;;22.55;71.75;101036.25;4962421;28;20046;-70
2023/10/12 10:26:23;;;;;;;21.02;9.45;;;;;;;22.49;71.66;101038.56;5015334;28;20586;-70
2023/10/12 10:29:08;;;;;;;19.95;8.93;;;;;;;22.52;71.66;101039.78;5027299;28;20049;-70
2023/10/12 10:31:43;;;;;;;18.80;8.77;;;;;;;22.47;71.92;101040.97;4980569;28;20286;-70
2023/10/12 10:34:12;;;;;;;22.38;11.40;;;;;;;22.52;71.70;101037.81;4997932;28;20045;-70
2023/10/12 10:36:40;;;;;;;23.60;12.40;;;;;;;22.67;71.10;101035.94;4998451;28;20060;-71
2023/10/12 10:44:22;;;;;;;31.58;14.02;;;;;;;22.71;71.51;101031.19;4998604;28;20046;-69
2023/10/12 10:46:57;;;;;;;20.38;10.07;;;;;;;22.92;70.65;101032.19;5016135;28;20060;-70
2023/10/12 10:49:31;;;;;;;25.00;13.65;;;;;;;22.88;70.92;101030.53;5016104;28;20770;-69
2023/10/12 10:54:38;;;;;;;17.95;11.15;;;;;;;22.86;70.77;101030.09;5014418;28;20685;-65
2023/10/12 10:57:24;;;;;;;18.23;10.48;;;;;;;22.77;71.14;101035.25;4998502;28;20057;-69
2023/10/12 10:59:52;;;;;;;22.23;11.60;;;;;;;22.98;70.57;101021.41;4997034;28;20057;-68
2023/10/12 11:02:21;;;;;;;32.17;15.65;;;;;;;22.91;71.02;101030.56;5014311;28;20784;-63
2023/10/12 11:04:55;;;;;;;31.80;15.90;;;;;;;22.70;72.43;101029.59;5015332;28;20046;-68
2023/10/12 11:07:24;;;;;;;24.58;13.82;;;;;;;22.92;71.82;101031.38;4995548;28;20444;-70
2023/10/12 11:12:30;;;;;;;22.77;11.90;;;;;;;22.70;72.81;101030.38;4980172;28;20049;-68
2023/10/12 11:15:05;;;;;;;27.23;12.32;;;;;;;22.78;73.28;101028.44;5013911;28;20062;-68
2023/10/12 11:17:41;;;;;;;17.25;10.93;;;;;;;23.11;71.26;101028.31;5006922;28;20066;-68
2023/10/12 11:20:27;;;;;;;27.80;10.40;;;;;;;23.06;72.14;101031.47;4996924;28;20072;-68
2023/10/12 11:22:55;;;;;;;23.55;12.75;;;;;;;23.22;71.63;101026.38;5012210;28;20054;-69
2023/10/12 11:25:22;;;;;;;29.23;10.90;;;;;;;23.36;70.65;101029.31;5014129;28;20042;-65
2023/10/12 11:27:53;;;;;;;26.83;10.27;;;;;;;23.36;70.74;101026.50;5012664;28;20062;-67
2023/10/12 11:30:31;;;;;;;31.25;16.25;;;;;;;23.31;71.38;101032.47;5014901;28;20064;-70
2023/10/12 11:33:00;;;;;;;34.60;16.02;;;;;;;23.33;71.65;101018.84;4994009;28;20044;-68
2023/10/12 11:35:40;;;;;;;27.63;13.23;;;;;;;23.49;70.97;101019.34;5015092;28;20449;-69
2023/10/12 11:38:19;;;;;;;23.10;11.75;;;;;;;23.57;71.45;101004.13;5010966;28;20311;-71
2023/10/12 11:40:52;;;;;;;27.17;11.23;;;;;;;23.43;72.27;101009.69;5002839;28;20049;-70
2023/10/12 11:43:30;;;;;;;24.38;11.30;;;;;;;23.32;73.53;101006.81;4998166;28;20053;-70
2023/10/12 11:46:03;;;;;;;28.00;12.82;;;;;;;23.49;73.23;101005.28;4999426;28;20053;-68
2023/10/12 11:48:30;;;;;;;30.95;12.20;;;;;;;23.72;72.73;101003.00;5009790;28;20054;-69
2023/10/12 11:51:11;;;;;;;29.48;15.13;;;;;;;23.77;72.89;100988.53;5011365;28;20053;-70
2023/10/12 11:53:39;;;;;;;25.27;13.15;;;;;;;24.06;71.18;100990.25;4997890;28;20038;-70
2023/10/12 11:56:14;;;;;;;26.20;11.88;;;;;;;24.07;71.26;100994.72;4980053;28;20057;-69
2023/10/12 11:58:47;;;;;;;21.90;10.60;;;;;;;23.65;73.81;100997.31;4995848;28;20046;-69
2023/10/12 12:01:15;;;;;;;19.58;9.73;;;;;;;23.10;78.11;101004.22;4995823;28;20070;-69
2023/10/12 12:03:45;;;;;;;26.60;16.55;;;;;;;22.73;80.63;101011.94;5010801;28;20045;-69
2023/10/12 12:06:18;;;;;;;52.58;31.17;;;;;;;22.78;80.17;101005.97;5013701;28;20054;-69
2023/10/12 12:08:47;;;;;;;27.00;15.45;;;;;;;22.91;77.93;101004.47;5013864;28;20049;-69
2023/10/12 12:11:19;;;;;;;21.23;11.77;;;;;;;23.12;77.06;100990.56;4980191;28;20048;-69
2023/10/12 12:13:48;;;;;;;21.02;13.70;;;;;;;23.05;78.87;100987.69;4996484;28;20041;-69
2023/10/12 12:16:20;;;;;;;20.45;11.77;;;;;;;23.32;75.81;100984.31;5013922;28;20049;-69
2023/10/12 12:18:52;;;;;;;23.65;9.85;;;;;;;23.42;75.32;100988.38;4992378;28;20049;-69
2023/10/12 12:21:34;;;;;;;18.85;9.80;;;;;;;23.39;76.59;100978.72;5010442;28;20042;-69
2023/10/12 12:26:54;;;;;;;17.38;8.75;;;;;;;23.21;78.19;100980.59;5016321;28;19928;-70
2023/10/12 12:29:26;;;;;;;16.20;8.02;;;;;;;23.54;74.66;100979.59;4995526;28;20046;-69
2023/10/12 12:32:03;;;;;;;18.10;8.32;;;;;;;23.66;74.19;100984.09;5008666;28;20060;-69
2023/10/12 12:34:38;;;;;;;17.70;7.93;;;;;;;23.65;74.47;100982.44;4995967;28;20050;-69
2023/10/12 12:37:06;;;;;;;20.88;9.90;;;;;;;23.55;76.43;100986.03;5013611;28;20058;-69
2023/10/12 12:39:34;;;;;;;22.08;10.05;;;;;;;23.46;76.32;100994.00;4995469;28;20509;-69
2023/10/12 12:42:02;;;;;;;18.38;8.65;;;;;;;23.45;76.06;100992.41;5012474;28;20049;-70
2023/10/12 12:44:29;;;;;;;16.92;8.27;;;;;;;22.96;80.09;100999.28;5014171;28;20408;-69
2023/10/12 12:46:59;;;;;;;19.70;9.82;;;;;;;22.92;81.00;101004.09;5013567;28;20061;-69
2023/10/12 12:49:29;;;;;;;21.27;9.00;;;;;;;22.87;80.96;101001.66;5027661;28;20049;-68
2023/10/12 12:52:00;;;;;;;;;;;;;;;22.98;79.51;100994.09;5012865;28;20057;-68
2023/10/12 12:54:27;;;;;;;20.23;7.57;;;;;;;22.86;80.39;100993.56;5012491;28;19921;-69
2023/10/12 12:56:55;;;;;;;16.33;7.40;;;;;;;23.14;78.47;100993.78;4996252;28;20068;-69
2023/10/12 12:59:24;;;;;;;17.20;7.45;;;;;;;23.23;77.10;100992.25;5012777;28;20053;-70
2023/10/12 13:01:51;;;;;;;17.33;6.88;;;;;;;23.24;78.42;100995.88;5013317;28;20068;-69
2023/10/12 13:04:19;;;;;;;13.20;6.55;;;;;;;23.33;76.74;100999.97;4989617;28;20046;-69
2023/10/12 13:06:48;;;;;;;16.98;6.28;;;;;;;23.36;77.68;100992.78;5011148;28;20058;-70
2023/10/12 13:09:33;;;;;;;18.77;6.50;;;;;;;23.58;75.51;100991.66;5012149;28;20049;-69
2023/10/12 13:12:07;;;;;;;21.20;7.55;;;;;;;23.87;73.43;101001.84;5009405;28;20065;-70
2023/10/12 13:14:34;;;;;;;10.65;5.40;;;;;;;23.82;75.06;100993.78;5013371;28;20048;-68
2023/10/12 13:17:01;;;;;;;19.73;5.90;;;;;;;23.68;74.78;100990.09;5013468;28;20057;-72
2023/10/12 13:19:32;;;;;;;12.35;5.60;;;;;;;23.53;76.25;100997.69;5012439;28;20049;-69
2023/10/12 13:21:59;;;;;;;17.77;5.85;;;;;;;23.63;74.11;101005.34;5009426;28;20054;-68
2023/10/12 13:24:28;;;;;;;10.25;5.30;;;;;;;23.88;73.22;101000.66;5010212;28;20041;-70
2023/10/12 13:26:55;;;;;;;15.10;5.30;;;;;;;23.85;72.96;100992.19;4994955;28;20457;-69
2023/10/12 13:29:22;;;;;;;11.50;5.47;;;;;;;24.11;71.28;100991.91;5011641;28;20050;-68
2023/10/12 13:31:50;;;;;;;11.27;4.78;;;;;;;23.99;72.27;100990.25;5005366;28;20054;-69
2023/10/12 13:34:19;;;;;;;11.00;4.80;;;;;;;23.70;74.00;100998.94;5008559;28;20493;-68
2023/10/12 13:36:47;;;;;;;13.48;5.30;;;;;;;23.66;74.16;100993.31;5008545;28;20042;-68
2023/10/12 13:39:15;;;;;;;9.88;4.90;;;;;;;23.75;72.68;100993.75;4994143;28;20042;-69
2023/10/12 13:41:42;;;;;;;13.52;5.30;;;;;;;23.57;74.91;101008.94;5010412;28;20066;-69
2023/10/12 13:44:09;;;;;;;8.85;4.65;;;;;;;23.54;73.98;101002.09;4995016;28;20038;-70
2023/10/12 13:46:38;;;;;;;8.32;4.72;;;;;;;23.65;72.76;101004.94;5013140;28;20512;-68
2023/10/12 13:49:11;;;;;;;13.65;4.75;;;;;;;23.60;74.42;100994.09;4993314;28;20068;-69